Time;durP1;ratioP1;P1;durP2;ratioP2;P2;SDS_P1;SDS_P2;PMS_P1;PMS_P2;Temp;Humidity;BMP_temperature;BMP_pressure;BME280_temperature;BME280_humidity;BME280_pressure;Samples;Min_cycle;Max_cycle;Signal;HPM_P1;HPM_P2
2021/06/08 00:00:41;;;;;;;11.37;10.27;;;15.10;99.90;14.90;97086.00;;;;5025396;28;20221;-63
2021/06/08 00:03:31;;;;;;;11.10;9.70;;;15.10;99.90;14.90;97083.00;;;;5027239;28;20229;-63
2021/06/08 00:06:19;;;;;;;13.90;12.57;;;15.10;99.90;14.80;97082.00;;;;5028024;28;20201;-64
2021/06/08 00:09:08;;;;;;;18.47;10.80;;;15.10;99.90;14.70;97089.00;;;;5026583;28;20236;-65
2021/06/08 00:11:56;;;;;;;11.23;10.13;;;15.10;99.90;14.70;97078.00;;;;5026772;28;20665;-64
2021/06/08 00:14:44;;;;;;;13.23;12.03;;;15.10;99.90;14.70;97081.00;;;;5026023;28;20224;-64
2021/06/08 00:17:32;;;;;;;11.97;10.77;;;15.10;99.90;14.70;97079.00;;;;5026205;28;20213;-64
2021/06/08 00:20:22;;;;;;;12.10;10.70;;;15.10;99.90;14.70;97077.00;;;;5040425;28;20240;-63
2021/06/08 00:23:11;;;;;;;17.47;11.63;;;15.00;99.90;14.70;97080.00;;;;5045928;28;20225;-64
2021/06/08 00:26:00;;;;;;;14.33;10.27;;;15.10;99.90;14.70;97076.00;;;;5041317;28;20216;-63
2021/06/08 00:28:48;;;;;;;11.67;10.20;;;15.10;99.90;14.70;97073.00;;;;5029264;28;20212;-64
2021/06/08 00:31:36;;;;;;;11.60;10.40;;;15.00;99.90;14.60;97081.00;;;;5025229;28;20208;-63
2021/06/08 00:34:24;;;;;;;12.30;11.17;;;15.00;99.90;14.70;97074.00;;;;5026701;28;20205;-65
2021/06/08 00:37:14;;;;;;;12.93;11.10;;;15.00;99.90;14.70;97078.00;;;;5026830;28;20209;-65
2021/06/08 00:40:03;;;;;;;10.90;9.80;;;15.00;99.90;14.70;97079.00;;;;5046050;28;20231;-64
2021/06/08 00:42:51;;;;;;;11.47;9.70;;;15.10;99.90;14.70;97088.00;;;;5026371;28;20221;-64
2021/06/08 00:45:39;;;;;;;14.27;12.20;;;15.00;99.90;14.70;97073.00;;;;5026398;28;20197;-64
2021/06/08 00:48:28;;;;;;;12.10;10.93;;;15.00;99.90;14.70;97077.00;;;;5025715;28;20209;-64
2021/06/08 00:51:16;;;;;;;11.40;10.40;;;15.00;99.90;14.60;97080.00;;;;5043654;28;20199;-65
2021/06/08 00:54:09;;;;;;;12.33;11.03;;;15.00;99.90;14.60;97086.00;;;;5025910;28;20224;-65
2021/06/08 00:56:59;;;;;;;11.53;10.43;;;15.00;99.90;14.60;97069.00;;;;5027000;28;20213;-64
2021/06/08 00:59:47;;;;;;;12.23;11.03;;;14.90;99.90;14.60;97075.00;;;;5026227;28;20232;-64
2021/06/08 01:02:36;;;;;;;11.87;10.37;;;14.90;99.90;14.60;97071.00;;;;5025283;28;20221;-63
2021/06/08 01:05:25;;;;;;;10.87;9.87;;;15.00;99.90;14.50;97069.00;;;;5026962;28;20207;-63
2021/06/08 01:08:13;;;;;;;11.23;10.07;;;14.90;99.90;14.40;97068.00;;;;5040164;28;20227;-60
2021/06/08 01:11:03;;;;;;;13.33;11.23;;;14.90;99.90;14.40;97068.00;;;;5045344;28;20216;-63
2021/06/08 01:13:52;;;;;;;11.70;10.60;;;14.90;99.90;14.50;97064.00;;;;5031796;28;20604;-62
2021/06/08 01:16:40;;;;;;;11.90;10.73;;;14.80;99.90;14.40;97065.00;;;;5026779;28;20205;-61
2021/06/08 01:19:28;;;;;;;12.07;10.27;;;14.80;99.90;14.50;97060.00;;;;5025875;28;20225;-63
2021/06/08 01:22:18;;;;;;;11.77;10.17;;;14.80;99.90;14.40;97063.00;;;;5025400;28;20711;-62
2021/06/08 01:25:08;;;;;;;12.20;10.93;;;14.80;99.90;14.40;97065.00;;;;5026273;28;20653;-62
2021/06/08 01:27:56;;;;;;;12.27;11.07;;;14.80;99.90;14.40;97059.00;;;;5025496;28;20205;-64
2021/06/08 01:30:45;;;;;;;11.63;10.53;;;14.70;99.90;14.30;97060.00;;;;5025399;28;20225;-64
2021/06/08 01:33:36;;;;;;;13.40;10.73;;;14.80;99.90;14.30;97050.00;;;;5024932;28;20205;-64
2021/06/08 01:36:27;;;;;;;11.97;10.77;;;14.70;99.90;14.40;97059.00;;;;5026185;28;20242;-64
2021/06/08 01:39:17;;;;;;;12.17;10.63;;;14.70;99.90;14.40;97060.00;;;;5025648;28;20217;-64
2021/06/08 01:42:07;;;;;;;11.97;10.77;;;14.70;99.90;14.30;97054.00;;;;5026265;28;20215;-65
2021/06/08 01:44:55;;;;;;;13.57;12.27;;;14.70;99.90;14.20;97056.00;;;;5029656;28;20244;-61
2021/06/08 01:47:43;;;;;;;13.00;11.77;;;14.70;99.90;14.20;97058.00;;;;5030391;28;20873;-64
2021/06/08 01:50:32;;;;;;;12.30;11.20;;;14.70;99.90;14.30;97052.00;;;;5040439;28;20232;-61
2021/06/08 01:53:30;;;;;;;11.90;10.80;;;14.60;99.90;14.20;97057.00;;;;5030673;28;20212;-62
2021/06/08 01:56:23;;;;;;;15.63;11.10;;;14.60;99.90;14.20;97050.00;;;;5029538;28;20558;-64
2021/06/08 01:59:23;;;;;;;12.90;11.57;;;14.60;99.90;14.10;97058.00;;;;5029330;28;20221;-62
2021/06/08 02:02:21;;;;;;;11.73;10.23;;;14.60;99.90;14.10;97062.00;;;;5039904;28;20554;-61
2021/06/08 02:05:23;;;;;;;12.20;11.00;;;14.50;99.90;14.10;97065.00;;;;5028718;28;20209;-62
2021/06/08 02:08:24;;;;;;;13.43;11.83;;;14.50;99.90;14.10;97061.00;;;;5042387;28;20197;-64
2021/06/08 02:11:16;;;;;;;15.63;11.97;;;14.50;99.90;14.20;97057.00;;;;5028310;28;20209;-65
2021/06/08 02:14:09;;;;;;;16.27;10.80;;;14.50;99.90;14.30;97067.00;;;;5029089;28;20221;-63
2021/06/08 02:17:03;;;;;;;10.23;9.23;;;14.50;99.90;14.30;97067.00;;;;5029395;28;20596;-65
2021/06/08 02:19:56;;;;;;;12.43;11.23;;;14.50;99.90;14.30;97064.00;;;;5029145;28;20232;-65
2021/06/08 02:22:50;;;;;;;10.47;9.53;;;14.60;99.90;14.20;97065.00;;;;5028861;28;20676;-64
2021/06/08 02:25:39;;;;;;;18.67;9.77;;;14.60;99.90;14.20;97060.00;;;;5028066;28;20676;-63
2021/06/08 02:28:32;;;;;;;11.40;10.20;;;14.60;99.90;14.20;97061.00;;;;5028245;28;20566;-63
2021/06/08 02:31:23;;;;;;;12.43;11.07;;;14.50;99.90;14.20;97062.00;;;;5028538;28;20215;-64
2021/06/08 02:34:12;;;;;;;11.57;10.40;;;14.50;99.90;14.10;97062.00;;;;5028073;28;20198;-63
2021/06/08 02:37:03;;;;;;;11.03;10.10;;;14.50;99.90;14.10;97061.00;;;;5028009;28;20596;-63
2021/06/08 02:39:52;;;;;;;11.03;10.00;;;14.50;99.90;14.00;97068.00;;;;5028156;28;20260;-64
2021/06/08 02:42:42;;;;;;;10.87;9.90;;;14.50;99.90;14.00;97072.00;;;;5027838;28;20206;-64
2021/06/08 02:45:32;;;;;;;12.77;8.90;;;14.40;99.90;13.90;97068.00;;;;5028671;28;20212;-64
2021/06/08 02:48:23;;;;;;;11.47;10.27;;;14.40;99.90;13.90;97075.00;;;;5028277;28;20216;-64
2021/06/08 02:51:11;;;;;;;12.07;9.97;;;14.30;99.90;13.90;97076.00;;;;5031677;28;20204;-64
2021/06/08 02:54:00;;;;;;;11.23;10.20;;;14.30;99.90;13.90;97078.00;;;;5037615;28;20205;-64
2021/06/08 02:56:49;;;;;;;11.03;9.97;;;14.30;99.90;13.80;97084.00;;;;5028285;28;20205;-65
2021/06/08 02:59:39;;;;;;;10.40;9.37;;;14.20;99.90;13.70;97084.00;;;;5028065;28;20229;-64
2021/06/08 03:02:29;;;;;;;9.57;8.70;;;14.20;99.90;13.70;97079.00;;;;5026401;28;20294;-64
2021/06/08 03:05:26;;;;;;;11.10;9.60;;;14.20;99.90;13.50;97088.00;;;;5027107;28;20208;-64
2021/06/08 03:08:21;;;;;;;10.67;9.57;;;14.10;99.90;13.50;97086.00;;;;5041633;28;20208;-64
2021/06/08 03:11:16;;;;;;;10.17;9.27;;;14.00;99.90;13.50;97088.00;;;;5028702;28;20216;-64
2021/06/08 03:14:08;;;;;;;11.60;10.40;;;14.00;99.90;13.40;97083.00;;;;5027140;28;20217;-64
2021/06/08 03:16:59;;;;;;;13.70;10.80;;;13.90;99.90;13.40;97080.00;;;;5027823;28;20231;-64
2021/06/08 03:19:49;;;;;;;11.80;10.60;;;13.90;99.90;13.40;97080.00;;;;5027078;28;20225;-64
2021/06/08 03:22:43;;;;;;;11.57;9.47;;;13.90;99.90;13.20;97090.00;;;;5028069;28;20546;-64
2021/06/08 03:25:33;;;;;;;11.70;10.57;;;13.80;99.90;13.10;97085.00;;;;5027414;28;20306;-64
2021/06/08 03:28:24;;;;;;;11.43;10.23;;;13.70;99.90;13.20;97091.00;;;;5027480;28;20197;-64
2021/06/08 03:31:14;;;;;;;11.40;10.27;;;13.70;99.90;13.20;97095.00;;;;5027678;28;20205;-65
2021/06/08 03:34:03;;;;;;;13.40;11.07;;;13.60;99.90;13.20;97105.00;;;;5040566;28;20202;-63
2021/06/08 03:36:54;;;;;;;11.67;10.47;;;13.70;99.90;13.20;97102.00;;;;5027301;28;20816;-64
2021/06/08 03:39:45;;;;;;;12.20;11.03;;;13.60;99.90;13.20;97096.00;;;;5026975;28;20602;-64
2021/06/08 03:42:34;;;;;;;12.17;9.77;;;13.70;99.90;13.30;97101.00;;;;5027482;28;20354;-64
2021/06/08 03:45:23;;;;;;;17.27;10.83;;;13.70;99.90;13.40;97107.00;;;;5027390;28;20201;-64
2021/06/08 03:48:12;;;;;;;20.37;10.23;;;14.00;99.90;13.30;97107.00;;;;5027320;28;20209;-61
2021/06/08 03:51:01;;;;;;;12.80;11.03;;;13.70;99.90;13.20;97110.00;;;;5043277;28;20216;-61
2021/06/08 03:53:49;;;;;;;14.63;11.13;;;13.70;99.90;13.30;97110.00;;;;5038250;28;20209;-64
2021/06/08 03:56:42;;;;;;;11.47;10.37;;;13.70;99.90;13.40;97102.00;;;;5027688;28;20592;-64
2021/06/08 03:59:32;;;;;;;11.07;9.43;;;13.70;99.90;13.50;97105.00;;;;5026014;28;20217;-64
2021/06/08 04:02:21;;;;;;;11.13;10.03;;;13.70;99.90;13.40;97104.00;;;;5026956;28;20212;-62
2021/06/08 04:05:11;;;;;;;11.47;9.93;;;13.80;99.90;13.50;97109.00;;;;5026372;28;20695;-64
2021/06/08 04:07:59;;;;;;;10.63;9.63;;;13.80;99.90;13.50;97115.00;;;;5026972;28;20204;-64
2021/06/08 04:10:49;;;;;;;10.83;9.83;;;13.80;99.90;13.50;97110.00;;;;5028212;28;20236;-65
2021/06/08 04:13:41;;;;;;;10.43;9.40;;;13.80;99.90;13.60;97103.00;;;;5035257;28;20220;-62
2021/06/08 04:16:29;;;;;;;11.30;9.70;;;13.80;99.90;13.50;97113.00;;;;5026371;28;20197;-61
2021/06/08 04:19:18;;;;;;;11.93;9.63;;;13.90;99.90;13.60;97104.00;;;;5027277;28;20758;-62
2021/06/08 04:22:06;;;;;;;10.37;8.53;;;13.90;99.90;13.50;97110.00;;;;5011637;28;20216;-65
2021/06/08 04:24:55;;;;;;;11.47;10.37;;;13.90;99.90;13.40;97109.00;;;;5026843;28;20229;-65
2021/06/08 04:27:44;;;;;;;9.83;8.77;;;13.90;99.90;13.50;97107.00;;;;5030618;28;20193;-64
2021/06/08 04:30:35;;;;;;;12.70;9.80;;;13.90;99.90;13.60;97113.00;;;;5036359;28;20230;-62
2021/06/08 04:33:25;;;;;;;12.53;10.50;;;14.00;99.90;13.70;97110.00;;;;5035212;28;20262;-64
2021/06/08 04:36:14;;;;;;;12.10;10.23;;;14.00;99.90;13.90;97112.00;;;;5026802;28;20213;-64
2021/06/08 04:39:04;;;;;;;11.63;9.27;;;14.10;99.90;13.90;97107.00;;;;5017681;28;20229;-64
2021/06/08 04:41:52;;;;;;;17.10;11.80;;;14.10;99.90;14.10;97103.00;;;;5024813;28;20201;-63
2021/06/08 04:44:43;;;;;;;11.43;9.27;;;14.20;99.90;14.20;97108.00;;;;5026311;28;20225;-64
2021/06/08 04:47:32;;;;;;;11.30;10.37;;;14.30;99.90;14.40;97108.00;;;;5021730;28;20209;-64
2021/06/08 04:50:21;;;;;;;9.43;8.63;;;14.50;99.90;14.40;97110.00;;;;5035327;28;20231;-65
2021/06/08 04:53:09;;;;;;;9.90;9.00;;;14.60;99.90;14.50;97110.00;;;;5027884;28;20212;-64
2021/06/08 04:55:58;;;;;;;9.57;8.57;;;14.60;99.90;14.60;97102.00;;;;5025073;28;20209;-63
2021/06/08 04:58:48;;;;;;;9.67;8.77;;;14.70;99.90;14.80;97105.00;;;;5025956;28;20592;-64
2021/06/08 05:01:41;;;;;;;9.00;8.10;;;14.90;99.90;15.00;97106.00;;;;5024972;28;20205;-62
2021/06/08 05:04:33;;;;;;;9.73;8.87;;;15.00;99.90;15.10;97104.00;;;;5024936;28;20220;-64
2021/06/08 05:07:23;;;;;;;11.63;10.00;;;15.20;99.90;15.20;97103.00;;;;5026473;28;20201;-64
2021/06/08 05:10:15;;;;;;;11.87;9.70;;;15.30;99.90;15.40;97111.00;;;;5024488;28;20233;-61
2021/06/08 05:13:06;;;;;;;11.43;10.43;;;15.40;99.90;15.60;97095.00;;;;5025189;28;20197;-64
2021/06/08 05:15:56;;;;;;;9.30;8.50;;;15.50;99.90;15.70;97096.00;;;;5025709;28;20205;-61
2021/06/08 05:18:49;;;;;;;10.97;9.87;;;15.70;99.90;15.80;97107.00;;;;5025322;28;20202;-61
2021/06/08 05:21:41;;;;;;;10.60;8.47;;;15.80;99.90;15.90;97100.00;;;;5035435;28;20200;-64
2021/06/08 05:24:30;;;;;;;9.57;8.63;;;16.00;99.90;16.00;97106.00;;;;5025740;28;20232;-64
2021/06/08 05:27:20;;;;;;;11.70;7.73;;;16.00;99.90;16.30;97103.00;;;;5024107;28;20209;-64
2021/06/08 05:30:10;;;;;;;8.80;8.07;;;16.20;99.90;16.40;97099.00;;;;5025286;28;20225;-64
2021/06/08 05:32:58;;;;;;;9.87;8.97;;;16.30;99.90;16.70;97108.00;;;;5035955;28;20211;-65
2021/06/08 05:35:47;;;;;;;9.13;8.07;;;16.50;99.90;16.80;97109.00;;;;5024672;28;20220;-63
2021/06/08 05:38:39;;;;;;;10.50;7.70;;;16.70;99.90;17.10;97103.00;;;;5025439;28;20203;-65
2021/06/08 05:41:28;;;;;;;8.47;7.67;;;16.90;99.90;17.40;97107.00;;;;5033190;28;20213;-62
2021/06/08 05:44:17;;;;;;;8.50;7.70;;;17.10;99.90;17.60;97115.00;;;;5040998;28;20224;-64
2021/06/08 05:47:07;;;;;;;9.70;7.63;;;17.30;99.90;17.80;97113.00;;;;5025637;28;20672;-63
2021/06/08 05:49:55;;;;;;;7.43;6.57;;;17.50;99.90;18.20;97113.00;;;;5034363;28;20225;-63
2021/06/08 05:52:45;;;;;;;6.97;6.37;;;17.70;99.90;18.30;97112.00;;;;5030674;28;20201;-63
2021/06/08 05:55:40;;;;;;;8.03;6.97;;;18.00;99.90;18.50;97109.00;;;;5025525;28;20277;-63
2021/06/08 05:58:31;;;;;;;9.63;7.33;;;18.20;99.90;18.70;97115.00;;;;5037985;28;20201;-66
2021/06/08 06:01:20;;;;;;;8.53;7.33;;;18.40;99.90;18.80;97112.00;;;;5023760;28;20214;-65
2021/06/08 06:04:12;;;;;;;8.47;7.10;;;18.50;99.90;18.90;97103.00;;;;5038334;28;20228;-63
2021/06/08 06:07:00;;;;;;;8.13;7.20;;;18.70;99.90;19.20;97107.00;;;;5045185;28;20200;-61
2021/06/08 06:09:48;;;;;;;8.93;7.40;;;18.90;99.90;19.30;97109.00;;;;5045891;28;20231;-63
2021/06/08 06:12:39;;;;;;;8.70;6.97;;;19.00;99.90;19.40;97116.00;;;;5046675;28;20197;-64
2021/06/08 06:15:31;;;;;;;7.20;6.60;;;19.20;99.90;19.60;97117.00;;;;5030629;28;20208;-61
2021/06/08 06:18:20;;;;;;;8.40;7.60;;;19.40;99.90;19.60;97120.00;;;;5024708;28;20216;-65
2021/06/08 06:21:09;;;;;;;8.40;7.50;;;19.50;99.90;19.80;97112.00;;;;5025371;28;20761;-63
2021/06/08 06:23:59;;;;;;;9.30;6.67;;;19.60;99.90;19.90;97114.00;;;;5026111;28;20209;-64
2021/06/08 06:26:48;;;;;;;7.43;6.70;;;19.70;99.90;20.00;97118.00;;;;5024798;28;20209;-65
2021/06/08 06:29:38;;;;;;;7.07;6.43;;;19.80;99.90;20.10;97114.00;;;;5026847;28;20723;-63
2021/06/08 06:32:26;;;;;;;8.20;6.97;;;19.90;99.90;20.20;97117.00;;;;5033925;28;20204;-64
2021/06/08 06:35:15;;;;;;;8.87;7.20;;;20.10;99.90;20.30;97113.00;;;;5031583;28;20601;-65
2021/06/08 06:38:06;;;;;;;9.93;6.87;;;20.10;99.90;20.40;97116.00;;;;5026764;28;20204;-65
2021/06/08 06:40:54;;;;;;;8.27;6.80;;;20.30;99.90;20.50;97117.00;;;;5033361;28;20221;-64
2021/06/08 06:43:51;;;;;;;9.10;6.10;;;20.40;99.90;20.70;97116.00;;;;5029685;28;20201;-65
2021/06/08 06:46:41;;;;;;;6.90;6.20;;;20.50;99.90;20.70;97118.00;;;;5028070;28;20205;-66
2021/06/08 06:49:30;;;;;;;8.00;7.00;;;20.60;99.90;20.90;97116.00;;;;5052777;28;20225;-65
2021/06/08 06:52:19;;;;;;;8.43;7.07;;;20.70;99.90;21.10;97099.00;;;;5026958;28;20208;-62
2021/06/08 06:55:10;;;;;;;8.47;6.27;;;20.80;99.90;21.00;97104.00;;;;5028216;28;20209;-63
2021/06/08 06:57:59;;;;;;;7.73;6.13;;;20.90;99.90;21.20;97104.00;;;;5027648;28;20212;-65
2021/06/08 07:00:49;;;;;;;8.87;7.17;;;21.00;99.90;21.50;97102.00;;;;5043690;28;20216;-65
2021/06/08 07:03:39;;;;;;;7.47;6.60;;;21.20;99.90;21.60;97110.00;;;;5038022;28;20209;-62
2021/06/08 07:06:29;;;;;;;7.03;5.93;;;21.30;99.90;21.70;97103.00;;;;5027806;28;20205;-63
2021/06/08 07:09:23;;;;;;;7.50;4.67;;;21.50;99.90;21.80;97099.00;;;;5038513;28;20220;-64
2021/06/08 07:12:13;;;;;;;4.53;4.13;;;21.60;99.90;21.90;97092.00;;;;5035552;28;20213;-65
2021/06/08 07:15:02;;;;;;;5.97;5.37;;;21.70;99.90;22.00;97102.00;;;;5045190;28;20205;-64
2021/06/08 07:17:51;;;;;;;5.40;4.90;;;21.80;99.90;22.00;97098.00;;;;5038988;28;20214;-63
2021/06/08 07:20:42;;;;;;;6.13;4.80;;;21.90;95.00;22.30;97105.00;;;;5043634;28;20734;-65
2021/06/08 07:23:31;;;;;;;5.20;4.30;;;22.00;95.50;22.40;97100.00;;;;5040815;28;20219;-63
2021/06/08 07:26:19;;;;;;;5.37;4.73;;;22.10;95.60;22.50;97098.00;;;;5031002;28;20229;-63
2021/06/08 07:29:09;;;;;;;5.27;4.23;;;22.20;91.90;22.50;97107.00;;;;5031069;28;20228;-65
2021/06/08 07:32:02;;;;;;;6.03;4.77;;;22.40;92.20;22.70;97101.00;;;;5033983;28;20217;-64
2021/06/08 07:35:01;;;;;;;7.13;6.07;;;22.50;90.40;23.00;97095.00;;;;5039131;28;20197;-63
2021/06/08 07:37:53;;;;;;;5.13;4.63;;;22.60;91.10;23.20;97098.00;;;;5036399;28;20197;-64
2021/06/08 07:40:48;;;;;;;7.43;5.50;;;22.80;92.80;23.20;97087.00;;;;5042744;28;20225;-63
2021/06/08 07:43:38;;;;;;;;;;;23.00;94.30;23.40;97093.00;;;;5038157;28;20197;-65
2021/06/08 07:46:29;;;;;;;8.70;4.50;;;23.10;94.00;23.50;97093.00;;;;5029976;28;20424;-66
2021/06/08 07:49:22;;;;;;;6.50;5.05;;;23.30;94.20;23.60;97086.00;;;;5051657;28;20222;-63
2021/06/08 07:52:13;;;;;;;5.35;4.95;;;23.40;90.00;23.80;97086.00;;;;5031400;28;20318;-65
2021/06/08 07:55:05;;;;;;;;;;;23.50;89.80;23.80;97091.00;;;;5030540;28;20448;-61
2021/06/08 07:57:54;;;;;;;7.50;4.30;;;23.60;81.40;23.90;97082.00;;;;5041601;28;20303;-63
2021/06/08 08:00:42;;;;;;;4.90;4.50;;;23.70;75.30;23.80;97092.00;;;;5046560;28;20217;-63
2021/06/08 08:03:32;;;;;;;5.00;4.03;;;23.70;71.90;24.00;97079.00;;;;5032998;28;20216;-63
2021/06/08 08:06:23;;;;;;;4.30;3.90;;;23.80;71.60;24.20;97092.00;;;;5045506;28;20224;-64
2021/06/08 08:09:12;;;;;;;4.07;3.37;;;23.90;69.30;23.90;97082.00;;;;5040468;28;20886;-66
2021/06/08 08:12:03;;;;;;;3.83;3.53;;;24.00;64.40;24.30;97080.00;;;;5035603;28;20673;-61
2021/06/08 08:14:52;;;;;;;3.50;3.20;;;24.10;66.90;24.60;97086.00;;;;5044173;28;20212;-63
2021/06/08 08:17:42;;;;;;;4.60;3.53;;;24.20;68.10;24.90;97091.00;;;;5041456;28;20202;-63
2021/06/08 08:20:45;;;;;;;3.57;3.27;;;24.40;68.40;25.00;97090.00;;;;5040874;28;20717;-64
2021/06/08 08:23:33;;;;;;;3.17;2.90;;;24.60;66.00;25.10;97092.00;;;;5046292;28;20640;-65
2021/06/08 08:26:22;;;;;;;4.33;3.93;;;24.70;63.60;25.10;97094.00;;;;5032960;28;20230;-65
2021/06/08 08:29:12;;;;;;;3.43;3.13;;;24.90;61.40;25.30;97079.00;;;;5026052;28;20219;-64
2021/06/08 08:32:00;;;;;;;4.37;3.10;;;25.00;60.30;25.20;97080.00;;;;5032214;28;20211;-64
2021/06/08 08:34:49;;;;;;;3.70;3.23;;;25.10;59.30;25.10;97075.00;;;;5035476;28;20198;-62
2021/06/08 08:37:37;;;;;;;3.90;3.60;;;25.10;57.50;25.50;97079.00;;;;5033495;28;20207;-61
2021/06/08 08:40:25;;;;;;;4.73;3.10;;;25.10;58.50;25.60;97078.00;;;;5043783;28;20232;-64
2021/06/08 08:43:14;;;;;;;3.80;3.50;;;25.20;57.20;25.00;97077.00;;;;5030692;28;20192;-65
2021/06/08 08:46:05;;;;;;;4.10;3.27;;;25.20;55.20;25.50;97080.00;;;;5032250;28;20234;-63
2021/06/08 08:48:55;;;;;;;3.27;3.03;;;25.30;55.80;25.80;97085.00;;;;5041969;28;20227;-63
2021/06/08 08:51:43;;;;;;;3.40;3.13;;;25.40;56.70;26.00;97082.00;;;;5027545;28;20205;-63
2021/06/08 08:54:32;;;;;;;4.47;3.70;;;25.60;57.30;26.20;97085.00;;;;5026396;28;20580;-65
2021/06/08 08:57:21;;;;;;;9.33;4.10;;;25.80;56.70;26.30;97078.00;;;;5039021;28;20200;-64
2021/06/08 09:00:11;;;;;;;3.90;3.60;;;25.90;56.10;25.60;97075.00;;;;5036955;28;20606;-63
2021/06/08 09:03:05;;;;;;;3.80;3.50;;;26.00;54.00;25.30;97069.00;;;;5041926;28;20218;-62
2021/06/08 09:05:56;;;;;;;5.70;3.47;;;25.90;53.30;25.90;97072.00;;;;5037139;28;20217;-63
2021/06/08 09:08:45;;;;;;;4.83;3.67;;;25.80;54.50;26.00;97079.00;;;;5041301;28;20212;-65
2021/06/08 09:11:37;;;;;;;3.53;3.23;;;25.80;55.70;26.30;97069.00;;;;5044724;28;20199;-64
2021/06/08 09:14:25;;;;;;;5.30;3.47;;;25.90;56.90;26.70;97058.00;;;;5045255;28;20274;-64
2021/06/08 09:17:17;;;;;;;3.57;3.27;;;26.20;56.60;27.10;97072.00;;;;5051318;28;20204;-65
2021/06/08 09:20:10;;;;;;;4.43;3.10;;;26.40;56.60;27.20;97063.00;;;;5046326;28;20241;-65
2021/06/08 09:23:00;;;;;;;4.77;3.87;;;26.60;55.10;27.30;97067.00;;;;5038425;28;20215;-65
2021/06/08 09:25:50;;;;;;;3.70;3.30;;;26.80;55.50;27.20;97075.00;;;;5046182;28;20731;-63
2021/06/08 09:28:39;;;;;;;3.50;3.20;;;26.90;54.40;27.20;97064.00;;;;5031442;28;20214;-64
2021/06/08 09:31:29;;;;;;;3.10;2.87;;;27.00;52.60;27.30;97061.00;;;;5039101;28;20553;-65
2021/06/08 09:34:20;;;;;;;3.27;3.07;;;27.10;52.60;26.40;97057.00;;;;5048127;28;20203;-64
2021/06/08 09:37:09;;;;;;;2.90;2.70;;;27.10;50.50;25.70;97057.00;;;;5054095;28;20225;-64
2021/06/08 09:39:58;;;;;;;3.83;3.53;;;26.80;49.10;25.50;97049.00;;;;5034607;28;20222;-62
2021/06/08 09:42:49;;;;;;;4.77;3.50;;;26.30;49.00;25.60;97046.00;;;;5042041;28;20205;-63
2021/06/08 09:45:43;;;;;;;3.73;3.43;;;26.00;49.70;25.70;97042.00;;;;5033241;28;20490;-64
2021/06/08 09:48:32;;;;;;;3.97;3.67;;;25.90;50.10;26.00;97036.00;;;;5034703;28;20215;-64
2021/06/08 09:51:21;;;;;;;3.93;3.63;;;25.90;50.60;25.80;97032.00;;;;5035780;28;20221;-64
2021/06/08 09:54:28;;;;;;;4.03;3.63;;;25.90;49.40;26.10;97037.00;;;;5046688;28;20211;-64
2021/06/08 09:57:23;;;;;;;4.20;3.80;;;26.00;49.50;26.90;97030.00;;;;5029760;28;20199;-63
2021/06/08 10:00:12;;;;;;;3.67;3.37;;;26.30;50.40;27.10;97030.00;;;;5029500;28;20235;-64
2021/06/08 10:03:08;;;;;;;3.87;3.50;;;26.50;51.30;28.10;97030.00;;;;5027558;28;20211;-63
2021/06/08 10:06:06;;;;;;;5.77;3.60;;;26.90;53.10;28.70;97034.00;;;;5041690;28;20602;-64
2021/06/08 10:08:59;;;;;;;4.27;3.20;;;27.50;52.70;29.00;97031.00;;;;5035296;28;20203;-63
2021/06/08 10:12:05;;;;;;;5.57;3.43;;;27.90;52.10;29.40;97028.00;;;;5042619;28;20199;-63
2021/06/08 10:14:53;;;;;;;3.60;3.30;;;28.40;51.90;29.60;97033.00;;;;5058744;28;20209;-63
2021/06/08 10:17:41;;;;;;;4.50;4.00;;;28.70;51.00;29.70;97031.00;;;;5040680;28;20327;-64
2021/06/08 10:20:33;;;;;;;4.03;3.03;;;29.00;50.10;29.50;97031.00;;;;5030284;28;20233;-65
2021/06/08 10:23:24;;;;;;;3.57;3.27;;;29.10;48.20;29.80;97020.00;;;;5033088;28;20201;-65
2021/06/08 10:26:14;;;;;;;2.90;2.70;;;29.20;50.00;29.30;97078.00;;;;5040758;28;20242;-63
2021/06/08 10:29:11;;;;;;;3.27;3.07;;;29.20;50.60;28.40;97077.00;;;;5047786;28;20249;-64
2021/06/08 10:31:59;;;;;;;3.83;3.13;;;28.90;49.90;28.80;97071.00;;;;5039955;28;20586;-64
2021/06/08 10:35:04;;;;;;;3.70;3.40;;;28.70;50.70;28.00;97078.00;;;;5051623;28;20213;-64
2021/06/08 10:37:53;;;;;;;5.00;3.40;;;28.40;50.80;27.50;97075.00;;;;5036481;28;20212;-63
2021/06/08 10:40:45;;;;;;;4.20;3.10;;;28.10;49.30;27.10;97073.00;;;;5042767;28;20656;-64
2021/06/08 10:43:37;;;;;;;4.23;3.10;;;27.80;49.60;26.90;97068.00;;;;5037861;28;20219;-64
2021/06/08 10:46:32;;;;;;;3.33;3.03;;;27.40;49.10;26.80;97072.00;;;;5045830;28;20243;-66
2021/06/08 10:49:34;;;;;;;4.30;3.30;;;27.20;50.00;26.50;97082.00;;;;5043764;28;20442;-64
2021/06/08 10:52:24;;;;;;;3.50;3.20;;;27.00;49.70;26.40;97067.00;;;;5034978;28;20215;-63
2021/06/08 10:55:14;;;;;;;3.57;3.27;;;26.80;51.10;26.00;97065.00;;;;5033583;28;20210;-64
2021/06/08 10:58:03;;;;;;;3.33;3.03;;;26.60;50.40;26.20;97070.00;;;;5052865;28;20210;-65
2021/06/08 11:00:52;;;;;;;5.13;3.37;;;26.40;49.70;26.50;97068.00;;;;5037147;28;20226;-65
2021/06/08 11:03:55;;;;;;;6.40;3.23;;;26.40;51.20;26.80;97068.00;;;;5035342;28;20201;-65
2021/06/08 11:06:50;;;;;;;4.03;3.73;;;26.50;51.80;26.10;97063.00;;;;5043972;28;20220;-63
2021/06/08 11:09:40;;;;;;;4.03;3.70;;;26.50;50.30;26.20;97063.00;;;;5034072;28;20229;-65
2021/06/08 11:12:28;;;;;;;3.70;3.37;;;26.40;51.30;26.20;97070.00;;;;5047569;28;20209;-63
2021/06/08 11:15:26;;;;;;;4.07;3.67;;;26.30;53.00;26.20;97079.00;;;;5033865;28;20311;-63
2021/06/08 11:18:39;;;;;;;5.53;2.80;;;26.30;53.30;25.80;97068.00;;;;5045663;28;20218;-63
2021/06/08 11:21:32;;;;;;;3.97;3.27;;;26.20;55.20;25.90;97060.00;;;;5034388;28;20195;-62
2021/06/08 11:24:35;;;;;;;4.90;3.33;;;26.10;54.20;26.30;97060.00;;;;5031678;28;20700;-62
2021/06/08 11:27:54;;;;;;;3.43;3.13;;;26.10;54.30;27.00;97001.00;;;;5043778;28;20719;-62
2021/06/08 11:30:55;;;;;;;6.20;3.10;;;26.30;53.80;28.30;97005.00;;;;5030258;28;20235;-64
2021/06/08 11:33:45;;;;;;;4.03;3.27;;;27.00;51.30;28.80;97012.00;;;;5039340;28;20200;-63
2021/06/08 11:36:36;;;;;;;5.13;3.43;;;27.60;50.20;29.40;97005.00;;;;5047389;28;20207;-65
2021/06/08 11:39:30;;;;;;;3.50;3.20;;;28.10;50.50;29.50;97006.00;;;;5044181;28;20316;-65
2021/06/08 11:42:34;;;;;;;5.23;2.90;;;28.70;49.00;29.40;96987.00;;;;5039983;28;20207;-63
2021/06/08 11:45:31;;;;;;;5.40;2.80;;;29.20;47.30;30.80;96988.00;;;;5037340;28;20202;-62
2021/06/08 11:48:30;;;;;;;3.65;3.35;;;29.50;48.80;31.50;96980.00;;;;5037888;28;20734;-64
2021/06/08 11:51:38;;;;;;;3.25;3.03;;;30.00;46.10;29.30;96972.00;;;;5044556;28;20690;-63
2021/06/08 11:54:48;;;;;;;3.40;2.83;;;30.20;43.60;29.30;97039.00;;;;5046387;28;20200;-64
2021/06/08 11:57:40;;;;;;;2.88;2.67;;;29.90;43.50;29.20;97045.00;;;;5033322;28;20210;-63
2021/06/08 12:00:46;;;;;;;3.00;2.63;;;29.50;45.10;28.00;97050.00;;;;5046020;28;20229;-63
2021/06/08 12:03:36;;;;;;;2.97;2.72;;;29.10;43.50;27.80;97042.00;;;;5029126;28;20215;-63
2021/06/08 12:07:07;;;;;;;4.13;2.83;;;28.60;44.10;27.80;97032.00;;;;5038387;28;20238;-64
2021/06/08 12:09:57;;;;;;;3.13;2.92;;;28.30;45.90;28.10;97036.00;;;;5035500;28;20227;-63
2021/06/08 12:12:49;;;;;;;3.70;2.97;;;28.10;47.00;28.10;97044.00;;;;5046234;28;20199;-65
2021/06/08 12:15:41;;;;;;;3.17;2.90;;;28.10;49.10;28.00;97049.00;;;;5041500;28;20289;-64
2021/06/08 12:18:33;;;;;;;3.63;3.33;;;28.00;48.30;27.80;97041.00;;;;5040774;28;20196;-64
2021/06/08 12:21:32;;;;;;;3.73;3.40;;;28.00;47.90;27.90;97042.00;;;;5025429;28;20228;-65
2021/06/08 12:24:22;;;;;;;3.60;3.30;;;27.90;48.10;27.80;97028.00;;;;5036178;28;20201;-63
2021/06/08 12:27:10;;;;;;;3.67;3.10;;;27.90;49.30;27.80;97031.00;;;;5034404;28;20216;-64
2021/06/08 12:30:00;;;;;;;4.53;3.80;;;27.80;49.30;27.60;97030.00;;;;5035605;28;20234;-64
2021/06/08 12:32:57;;;;;;;4.03;3.43;;;27.80;49.50;27.40;97021.00;;;;5043631;28;20585;-65
2021/06/08 12:35:46;;;;;;;9.70;3.70;;;27.70;48.70;27.40;97024.00;;;;5044956;28;20208;-63